This is the latest recevied weather packets stored in our database for station/object K7FLA. If no packets are shown the sender has not sent any weather packets the latest 1 day(s).
| Time | Temp. | Humidity | Pressure | Rain* | Wind** | Luminosity | Snow |
|---|---|---|---|---|---|---|---|
| 1778025261 | 15° C | 55% | 1093.6 hPa | 0 mm | 1.79 m/s, 212° | 38 W/m² | - |
| 1778024958 | 15° C | 55% | 1093.6 hPa | 0 mm | 0.89 m/s, 108° | 44 W/m² | - |
| 1778024655 | 15.56° C | 53% | 1093.7 hPa | 0 mm | 1.79 m/s, 186° | 56 W/m² | - |
| 1778024352 | 15.56° C | 54% | 1093.7 hPa | 0 mm | 1.79 m/s, 250° | 63 W/m² | - |
| 1778024050 | 15.56° C | 53% | 1093.6 hPa | 0 mm | 1.34 m/s, 101° | 105 W/m² | - |
| 1778023747 | 15.56° C | 53% | 1093.7 hPa | 0 mm | 1.79 m/s, 162° | 169 W/m² | - |
| 1778023445 | 15.56° C | 52% | 1093.5 hPa | 0 mm | 2.24 m/s, 213° | 144 W/m² | - |
| 1778023141 | 15.56° C | 53% | 1093.4 hPa | 0 mm | 1.79 m/s, 184° | 98 W/m² | - |
| 1778022839 | 15.56° C | 52% | 1093.5 hPa | 0 mm | 1.79 m/s, 172° | 106 W/m² | - |
| 1778022537 | 16.11° C | 52% | 1093.5 hPa | 0 mm | 2.24 m/s, 176° | 166 W/m² | - |
| 1778022234 | 16.11° C | 53% | 1093.7 hPa | 0 mm | 1.34 m/s, 243° | 188 W/m² | - |
| 1778021930 | 16.11° C | 51% | 1093.6 hPa | 0 mm | 1.34 m/s, 252° | 161 W/m² | - |
| 1778021628 | 16.67° C | 51% | 1093.5 hPa | 0 mm | 0.89 m/s, 139° | 153 W/m² | - |
| 1778021323 | 16.67° C | 50% | 1093.7 hPa | 0 mm | 0.89 m/s, 206° | 156 W/m² | - |
| 1778021021 | 17.22° C | 48% | 1093.8 hPa | 0 mm | 1.34 m/s, 185° | 197 W/m² | - |
| 1778020718 | 17.22° C | 49% | 1093.6 hPa | 0 mm | 0.89 m/s, 250° | 259 W/m² | - |
| 1778020415 | 17.22° C | 49% | 1093.7 hPa | 0 mm | 2.24 m/s, 171° | 574 W/m² | - |
| 1778020110 | 17.22° C | 48% | 1093.6 hPa | 0 mm | 2.24 m/s, 162° | 545 W/m² | - |
| 1778019807 | 16.67° C | 50% | 1093.7 hPa | 0 mm | 1.34 m/s, 240° | 647 W/m² | - |
| 1778019504 | 17.22° C | 49% | 1093.9 hPa | 0 mm | 1.79 m/s, 199° | 188 W/m² | - |
| 1778019201 | 17.78° C | 48% | 1093.7 hPa | 0 mm | 0.89 m/s, 249° | 192 W/m² | - |
| 1778018898 | 18.33° C | 47% | 1093.9 hPa | 0 mm | 0 m/s | 241 W/m² | - |
| 1778018594 | 18.33° C | 49% | 1093.8 hPa | 0 mm | 2.68 m/s, 220° | 496 W/m² | - |
| 1778018293 | 17.78° C | 48% | 1093.9 hPa | 0 mm | 0.89 m/s, 261° | 382 W/m² | - |
| 1778017990 | 17.78° C | 48% | 1094.1 hPa | 0 mm | 1.34 m/s, 195° | 369 W/m² | - |
* Rain latest hour (hover to see other rain measurements)
** Current wind speed in m/s (hover to see current wind gust speed)